createdAt,value
2023-03-08T00:01:15.991Z,98285.31
2023-03-08T00:03:42.554Z,98282.28
2023-03-08T00:06:12.553Z,98278.59
2023-03-08T00:08:39.260Z,98268.94
2023-03-08T00:11:07.117Z,98280.78
2023-03-08T00:13:33.526Z,98298.63
2023-03-08T00:16:01.730Z,98303.31
2023-03-08T00:18:28.182Z,98311.28
2023-03-08T00:21:09.701Z,98317.06
2023-03-08T00:23:36.235Z,98315.94
2023-03-08T00:26:03.029Z,98316.91
2023-03-08T00:28:30.120Z,98311.84
2023-03-08T00:30:57.658Z,98314.84
2023-03-08T00:33:24.112Z,98313.91
2023-03-08T00:35:58.344Z,98320.06
2023-03-08T00:38:25.480Z,98329.69
2023-03-08T00:40:52.646Z,98322.50
2023-03-08T00:43:19.285Z,98326.09
2023-03-08T00:45:45.697Z,98323.75
2023-03-08T00:48:12.488Z,98332.41
2023-03-08T00:50:39.026Z,98340.38
2023-03-08T00:53:05.691Z,98340.50
2023-03-08T00:55:32.097Z,98340.13
2023-03-08T00:57:58.686Z,98342.03
2023-03-08T01:00:25.132Z,98353.16
2023-03-08T01:02:51.564Z,98346.16
2023-03-08T01:05:17.895Z,98344.47
2023-03-08T01:07:44.237Z,98344.75
2023-03-08T01:10:11.393Z,98335.84
2023-03-08T01:12:38.372Z,98345.59
2023-03-08T01:15:05.858Z,98351.09
2023-03-08T01:17:32.563Z,98342.84
2023-03-08T01:19:58.920Z,98347.25
2023-03-08T01:22:25.297Z,98350.38
2023-03-08T01:24:51.673Z,98344.75
2023-03-08T01:27:18.018Z,98341.31
2023-03-08T01:29:44.630Z,98342.56
2023-03-08T01:32:11.365Z,98334.03
2023-03-08T01:34:38.499Z,98329.53
2023-03-08T01:37:05.795Z,98337.63
2023-03-08T01:39:32.401Z,98333.78
2023-03-08T01:41:58.765Z,98331.03
2023-03-08T01:44:25.096Z,98334.34
2023-03-08T01:46:52.679Z,98330.78
2023-03-08T01:49:22.665Z,98339.84
2023-03-08T01:51:54.563Z,98334.09
2023-03-08T01:54:26.412Z,98336.25
2023-03-08T01:56:58.106Z,98328.16
2023-03-08T01:59:24.529Z,98323.91
2023-03-08T02:01:51.017Z,98324.72
2023-03-08T02:04:17.375Z,98329.41
2023-03-08T02:06:44.820Z,98334.09
2023-03-08T02:09:12.008Z,98323.66
2023-03-08T02:11:41.685Z,98323.91
2023-03-08T02:14:08.114Z,98336.00
2023-03-08T02:16:34.624Z,98327.78
2023-03-08T02:19:04.958Z,98330.22
2023-03-08T02:21:32.428Z,98325.56
2023-03-08T02:24:28.216Z,98328.03
2023-03-08T02:27:08.060Z,98338.19
2023-03-08T02:29:34.419Z,98332.56
2023-03-08T02:32:00.793Z,98334.34
2023-03-08T02:34:27.146Z,98335.44
2023-03-08T02:36:53.510Z,98340.66
2023-03-08T02:39:19.857Z,98337.34
2023-03-08T02:41:46.252Z,98323.53
2023-03-08T02:44:12.689Z,98321.44
2023-03-08T02:46:39.136Z,98325.44
2023-03-08T02:49:05.486Z,98341.78
2023-03-08T02:51:31.833Z,98339.69
2023-03-08T02:53:58.292Z,98335.19
2023-03-08T02:56:24.792Z,98336.16
2023-03-08T02:58:51.434Z,98337.50
2023-03-08T03:01:17.856Z,98335.19
2023-03-08T03:03:44.353Z,98335.44
2023-03-08T03:06:19.539Z,98334.34
2023-03-08T03:08:46.116Z,98341.78
2023-03-08T03:11:18.115Z,98344.41
2023-03-08T03:13:44.838Z,98347.94
2023-03-08T03:16:14.158Z,98348.50
2023-03-08T03:18:41.284Z,98356.06
2023-03-08T03:21:10.638Z,98345.63
2023-03-08T03:23:37.497Z,98344.09
2023-03-08T03:26:06.450Z,98343.97
2023-03-08T03:28:32.776Z,98343.44
2023-03-08T03:30:59.222Z,98354.16
2023-03-08T03:33:25.786Z,98352.47
2023-03-08T03:35:52.125Z,98360.72
2023-03-08T03:38:18.537Z,98345.34
2023-03-08T03:40:44.922Z,98356.88
2023-03-08T03:43:11.298Z,98357.19
2023-03-08T03:45:37.673Z,98354.28
2023-03-08T03:48:04.075Z,98353.06
2023-03-08T03:50:30.450Z,98358.69
2023-03-08T03:52:56.810Z,98363.09
2023-03-08T03:55:23.139Z,98369.25
2023-03-08T03:57:50.670Z,98368.72
2023-03-08T04:00:17.505Z,98366.22
2023-03-08T04:02:43.927Z,98364.75
2023-03-08T04:05:10.302Z,98367.75
2023-03-08T04:07:36.696Z,98373.94
2023-03-08T04:10:03.106Z,98375.03
2023-03-08T04:12:29.479Z,98371.75
2023-03-08T04:14:55.851Z,98374.38
2023-03-08T04:17:22.205Z,98376.97
2023-03-08T04:19:50.242Z,98372.03
2023-03-08T04:22:16.705Z,98383.03
2023-03-08T04:24:43.359Z,98373.38
2023-03-08T04:27:09.867Z,98380.84
2023-03-08T04:29:36.313Z,98377.38
2023-03-08T04:32:02.813Z,98387.16
2023-03-08T04:34:29.145Z,98378.63
2023-03-08T04:36:55.506Z,98378.06
2023-03-08T04:39:21.899Z,98371.22
2023-03-08T04:41:48.248Z,98370.38
2023-03-08T04:44:14.615Z,98371.47
2023-03-08T04:46:41.137Z,98360.47
2023-03-08T04:49:07.558Z,98367.34
2023-03-08T04:51:33.916Z,98369.53
2023-03-08T04:54:00.265Z,98364.59
2023-03-08T04:56:26.755Z,98367.06
2023-03-08T04:58:53.185Z,98366.81
2023-03-08T05:01:22.888Z,98365.97
2023-03-08T05:03:49.720Z,98359.78
2023-03-08T05:06:16.837Z,98373.28
2023-03-08T05:08:43.944Z,98376.97
2023-03-08T05:11:11.672Z,98372.03
2023-03-08T05:13:38.946Z,98372.28
2023-03-08T05:16:07.709Z,98375.59
2023-03-08T05:18:34.372Z,98376.69
2023-03-08T05:21:07.011Z,98377.66
2023-03-08T05:23:34.185Z,98377.53
2023-03-08T05:26:02.113Z,98382.47
2023-03-08T05:28:31.568Z,98373.81
2023-03-08T05:31:09.179Z,98376.16
2023-03-08T05:33:36.459Z,98368.03
2023-03-08T05:36:03.517Z,98369.81
2023-03-08T05:38:30.412Z,98373.97
2023-03-08T05:41:00.874Z,98376.00
2023-03-08T05:43:27.687Z,98394.00
2023-03-08T05:45:56.850Z,98387.53
2023-03-08T05:48:23.884Z,98393.59
2023-03-08T05:50:50.314Z,98391.81
2023-03-08T05:53:16.697Z,98390.44
2023-03-08T05:55:44.297Z,98386.31
2023-03-08T05:58:10.825Z,98392.91
2023-03-08T06:00:37.207Z,98392.09
2023-03-08T06:03:03.980Z,98392.63
2023-03-08T06:05:31.689Z,98396.78
2023-03-08T06:07:58.709Z,98386.06
2023-03-08T06:10:25.122Z,98396.47
2023-03-08T06:12:51.811Z,98397.31
2023-03-08T06:15:18.243Z,98399.25
2023-03-08T06:17:44.640Z,98396.50
2023-03-08T06:20:11.354Z,98400.06
2023-03-08T06:22:37.848Z,98397.59
2023-03-08T06:25:04.535Z,98397.88
2023-03-08T06:27:30.920Z,98408.03
2023-03-08T06:29:57.345Z,98424.25
2023-03-08T06:32:23.776Z,98410.91
2023-03-08T06:34:50.178Z,98404.19
2023-03-08T06:37:16.731Z,98396.78
2023-03-08T06:39:43.106Z,98392.91
2023-03-08T06:42:09.527Z,98387.44
2023-03-08T06:44:36.310Z,98391.84
2023-03-08T06:47:03.336Z,98377.78
2023-03-08T06:49:29.704Z,98376.41
2023-03-08T06:51:56.053Z,98373.13
2023-03-08T06:54:24.178Z,98374.91
2023-03-08T06:56:50.885Z,98386.00
2023-03-08T06:59:17.512Z,98391.19
2023-03-08T07:01:43.981Z,98380.16
2023-03-08T07:04:10.455Z,98386.25
2023-03-08T07:06:36.993Z,98393.81
2023-03-08T07:09:04.654Z,98396.13
2023-03-08T07:11:32.210Z,98398.75
2023-03-08T07:13:59.337Z,98401.38
2023-03-08T07:16:25.704Z,98397.53
2023-03-08T07:18:52.147Z,98400.56
2023-03-08T07:21:18.648Z,98403.56
2023-03-08T07:23:44.974Z,98405.25
2023-03-08T07:26:11.841Z,98391.47
2023-03-08T07:28:38.505Z,98397.53
2023-03-08T07:31:05.160Z,98394.50
2023-03-08T07:33:31.666Z,98399.44
2023-03-08T07:36:04.507Z,98391.72
2023-03-08T07:38:30.938Z,98399.94
2023-03-08T07:40:57.848Z,98387.97
2023-03-08T07:43:24.598Z,98393.66
2023-03-08T07:45:51.077Z,98389.38
2023-03-08T07:48:17.471Z,98398.44
2023-03-08T07:50:43.829Z,98397.50
2023-03-08T07:53:10.405Z,98393.66
2023-03-08T07:55:38.129Z,98393.66
2023-03-08T07:58:04.674Z,98393.53
2023-03-08T08:00:31.163Z,98399.63
2023-03-08T08:02:57.610Z,98395.22
2023-03-08T08:05:26.363Z,98408.59
2023-03-08T08:07:52.824Z,98391.06
2023-03-08T08:10:19.346Z,98394.66
2023-03-08T08:12:45.725Z,98395.72
2023-03-08T08:15:12.238Z,98389.00
2023-03-08T08:17:38.618Z,98379.94
2023-03-08T08:20:08.099Z,98376.97
2023-03-08T08:22:36.333Z,98374.00
2023-03-08T08:25:05.142Z,98369.59
2023-03-08T08:27:31.496Z,98367.03
2023-03-08T08:29:59.207Z,98367.84
2023-03-08T08:32:27.409Z,98367.84
2023-03-08T08:34:53.781Z,98363.59
2023-03-08T08:37:20.149Z,98364.72
2023-03-08T08:39:46.520Z,98368.97
2023-03-08T08:42:12.871Z,98368.34
2023-03-08T08:44:39.230Z,98360.34
2023-03-08T08:47:05.636Z,98360.81
2023-03-08T08:49:32.137Z,98359.84
2023-03-08T08:51:58.590Z,98350.50
2023-03-08T08:54:25.132Z,98346.94
2023-03-08T08:56:51.848Z,98351.47
2023-03-08T08:59:18.235Z,98340.56
2023-03-08T09:01:44.892Z,98335.63
2023-03-08T09:04:13.601Z,98338.91
2023-03-08T09:06:40.445Z,98332.63
2023-03-08T09:09:07.052Z,98328.50
2023-03-08T09:11:37.767Z,98328.81
2023-03-08T09:14:11.525Z,98316.31
2023-03-08T09:16:37.953Z,98322.50
2023-03-08T09:19:04.968Z,98315.19
2023-03-08T09:21:32.365Z,98302.41
2023-03-08T09:24:01.520Z,98297.81
2023-03-08T09:26:31.962Z,98293.94
2023-03-08T09:29:04.635Z,98292.81
2023-03-08T09:31:32.992Z,98290.19
2023-03-08T09:34:00.088Z,98289.66
2023-03-08T09:36:28.624Z,98289.97
2023-03-08T09:38:56.018Z,98274.84
2023-03-08T09:41:35.050Z,98272.31
2023-03-08T09:44:32.206Z,98269.38
2023-03-08T09:47:05.641Z,98255.69
2023-03-08T09:49:33.311Z,98264.53
2023-03-08T09:52:08.777Z,98250.59
2023-03-08T09:54:38.470Z,98251.50
2023-03-08T09:57:16.756Z,98243.31
2023-03-08T10:00:08.109Z,98239.47
2023-03-08T10:02:47.873Z,98232.22
2023-03-08T10:05:26.456Z,98234.53
2023-03-08T10:07:58.812Z,98232.22
2023-03-08T10:10:43.848Z,98228.31
2023-03-08T10:13:28.877Z,98223.88
2023-03-08T10:16:11.235Z,98224.72
2023-03-08T10:18:47.939Z,98228.63
2023-03-08T10:21:18.333Z,98219.56
2023-03-08T10:24:00.358Z,98225.63
2023-03-08T10:26:28.237Z,98214.84
2023-03-08T10:28:54.879Z,98222.06
2023-03-08T10:31:25.966Z,98210.19
2023-03-08T10:34:16.763Z,98215.78
2023-03-08T10:37:04.339Z,98210.19
2023-03-08T10:39:30.743Z,98206.94
2023-03-08T10:46:14.862Z,98197.81
2023-03-08T10:48:42.069Z,98196.19
2023-03-08T10:51:23.504Z,98193.56
2023-03-08T10:54:04.713Z,98195.88
2023-03-08T10:56:33.766Z,98188.34
2023-03-08T10:59:00.169Z,98180.91
2023-03-08T11:01:29.434Z,98170.97
2023-03-08T11:04:25.582Z,98164.84
2023-03-08T11:06:52.024Z,98155.72
2023-03-08T11:09:30.537Z,98151.88
2023-03-08T11:11:58.820Z,98151.06
2023-03-08T11:14:26.957Z,98135.19
2023-03-08T11:17:12.341Z,98130.47
2023-03-08T11:19:53.851Z,98121.94
2023-03-08T11:22:29.449Z,98112.75
2023-03-08T11:25:14.352Z,98103.06
2023-03-08T11:28:11.700Z,98092.78
2023-03-08T11:30:44.228Z,98090.81
2023-03-08T11:33:26.950Z,98090.78
2023-03-08T11:36:05.562Z,98072.78
2023-03-08T11:38:33.380Z,98064.75
2023-03-08T11:41:19.589Z,98065.97
2023-03-08T11:44:04.315Z,98064.38
2023-03-08T11:46:45.674Z,98046.66
2023-03-08T11:49:41.720Z,98044.84
2023-03-08T11:52:22.143Z,98045.03
2023-03-08T11:55:15.612Z,98029.28
2023-03-08T11:57:47.081Z,98027.00
2023-03-08T12:00:31.519Z,98022.41
2023-03-08T12:03:04.511Z,98018.81
2023-03-08T12:05:35.106Z,98013.56
2023-03-08T12:08:12.366Z,98014.22
2023-03-08T12:10:50.919Z,97997.16
2023-03-08T12:13:24.033Z,97997.97
2023-03-08T12:16:15.268Z,97990.63
2023-03-08T12:19:22.306Z,97994.06
2023-03-08T12:22:01.584Z,97984.38
2023-03-08T12:24:41.955Z,97987.66
2023-03-08T12:27:40.558Z,97985.53
2023-03-08T12:30:10.009Z,97982.72
2023-03-08T12:32:39.688Z,97984.72
2023-03-08T12:35:25.733Z,97981.75
2023-03-08T12:38:15.381Z,97974.53
2023-03-08T12:40:47.125Z,97984.19
2023-03-08T12:43:14.754Z,97987.97
2023-03-08T12:45:44.201Z,97978.81
2023-03-08T12:48:22.523Z,97969.94
2023-03-08T12:51:00.245Z,97970.25
2023-03-08T12:53:33.310Z,97972.69
2023-03-08T12:56:10.575Z,97967.63
2023-03-08T12:58:40.311Z,97973.88
2023-03-08T13:01:08.292Z,97972.22
2023-03-08T13:03:41.885Z,97972.88
2023-03-08T13:06:23.593Z,97978.47
2023-03-08T13:09:15.602Z,97981.38
2023-03-08T13:11:48.062Z,97988.94
2023-03-08T13:14:37.903Z,97981.72
2023-03-08T13:17:36.335Z,97985.13
2023-03-08T13:20:38.901Z,97974.97
2023-03-08T13:23:10.820Z,97976.06
2023-03-08T13:26:01.126Z,97971.34
2023-03-08T13:28:46.680Z,97964.28
2023-03-08T13:31:18.475Z,97966.22
2023-03-08T13:33:50.985Z,97959.81
2023-03-08T13:36:19.272Z,97970.81
2023-03-08T13:38:56.277Z,97958.53
2023-03-08T13:41:39.836Z,97955.06
2023-03-08T13:44:13.888Z,97958.34
2023-03-08T13:46:42.832Z,97949.31
2023-03-08T13:49:18.121Z,97940.63
2023-03-08T13:51:48.081Z,97937.81
2023-03-08T13:54:29.232Z,97937.97
2023-03-08T13:56:58.060Z,97925.00
2023-03-08T13:59:24.513Z,97914.47
2023-03-08T14:01:52.543Z,97908.88
2023-03-08T14:04:27.717Z,97903.28
2023-03-08T14:06:56.606Z,97903.50
2023-03-08T14:09:23.549Z,97908.41
2023-03-08T14:12:06.598Z,97912.84
2023-03-08T14:14:37.356Z,97904.66
2023-03-08T14:17:04.786Z,97894.03
2023-03-08T14:19:35.271Z,97884.16
2023-03-08T14:22:04.556Z,97887.75
2023-03-08T14:24:33.986Z,97883.19
2023-03-08T14:27:03.527Z,97888.78
2023-03-08T14:29:32.604Z,97888.16
2023-03-08T14:32:26.724Z,97874.06
2023-03-08T14:35:16.186Z,97880.13
2023-03-08T14:37:45.432Z,97880.59
2023-03-08T14:40:21.093Z,97874.53
2023-03-08T14:42:51.340Z,97884.69
2023-03-08T14:45:20.597Z,97884.22
2023-03-08T14:47:58.058Z,97873.66
2023-03-08T14:50:32.878Z,97868.78
2023-03-08T14:53:01.606Z,97857.63
2023-03-08T14:55:33.435Z,97847.09
2023-03-08T14:58:03.343Z,97853.84
2023-03-08T15:00:31.222Z,97849.75
2023-03-08T15:02:59.057Z,97843.84
2023-03-08T15:05:29.442Z,97840.88
2023-03-08T15:07:59.301Z,97835.50
2023-03-08T15:10:30.452Z,97816.97
2023-03-08T15:12:57.650Z,97803.53
2023-03-08T15:15:24.317Z,97812.22
2023-03-08T15:17:50.888Z,97813.06
2023-03-08T15:20:17.937Z,97813.72
2023-03-08T15:22:50.450Z,97818.16
2023-03-08T15:25:22.858Z,97813.06
2023-03-08T15:27:49.901Z,97818.38
2023-03-08T15:30:23.074Z,97817.72
2023-03-08T15:32:49.991Z,97811.66
2023-03-08T15:35:16.953Z,97809.53
2023-03-08T15:37:44.492Z,97811.19
2023-03-08T15:40:22.674Z,97808.72
2023-03-08T15:42:49.016Z,97799.72
2023-03-08T15:45:15.545Z,97794.00
2023-03-08T15:47:42.577Z,97790.91
2023-03-08T15:50:17.969Z,97775.16
2023-03-08T15:52:45.367Z,97774.50
2023-03-08T15:55:13.497Z,97765.97
2023-03-08T15:57:40.284Z,97764.34
2023-03-08T16:00:09.490Z,97769.38
2023-03-08T16:02:37.346Z,97770.88
2023-03-08T16:05:05.518Z,97765.34
2023-03-08T16:07:32.073Z,97762.06
2023-03-08T16:09:58.459Z,97759.91
2023-03-08T16:12:24.848Z,97760.03
2023-03-08T16:14:51.752Z,97750.53
2023-03-08T16:17:18.363Z,97759.09
2023-03-08T16:19:44.800Z,97766.97
2023-03-08T16:22:11.541Z,97766.31
2023-03-08T16:24:37.954Z,97766.84
2023-03-08T16:27:04.494Z,97763.75
2023-03-08T16:29:32.444Z,97753.25
2023-03-08T16:31:59.394Z,97761.13
2023-03-08T16:34:26.784Z,97748.31
2023-03-08T16:36:53.991Z,97750.31
2023-03-08T16:39:20.975Z,97751.94
2023-03-08T16:41:47.887Z,97748.31
2023-03-08T16:44:21.948Z,97749.97
2023-03-08T16:46:48.871Z,97746.69
2023-03-08T16:49:16.535Z,97745.06
2023-03-08T16:51:43.211Z,97757.19
2023-03-08T16:54:11.392Z,97747.22
2023-03-08T16:56:38.201Z,97736.88
2023-03-08T16:59:04.988Z,97750.19
2023-03-08T17:01:31.599Z,97750.53
2023-03-08T17:03:58.869Z,97751.34
2023-03-08T17:06:28.622Z,97748.06
2023-03-08T17:08:54.966Z,97741.19
2023-03-08T17:11:25.659Z,97731.63
2023-03-08T17:13:55.392Z,97736.06
2023-03-08T17:16:23.581Z,97735.25
2023-03-08T17:18:50.659Z,97743.63
2023-03-08T17:21:17.714Z,97742.97
2023-03-08T17:23:44.673Z,97739.53
2023-03-08T17:26:13.039Z,97744.78
2023-03-08T17:28:40.115Z,97739.38
2023-03-08T17:31:11.883Z,97734.28
2023-03-08T17:33:38.643Z,97726.13
2023-03-08T17:36:06.520Z,97715.47
2023-03-08T17:38:33.718Z,97713.38
2023-03-08T17:41:03.948Z,97715.97
2023-03-08T17:43:30.347Z,97713.38
2023-03-08T17:45:58.618Z,97715.97
2023-03-08T17:48:25.117Z,97720.72
2023-03-08T17:50:52.147Z,97693.34
2023-03-08T17:53:19.228Z,97708.75
2023-03-08T17:55:45.996Z,97699.41
2023-03-08T17:58:12.591Z,97706.94
2023-03-08T18:00:39.251Z,97706.78
2023-03-08T18:03:05.618Z,97707.09
2023-03-08T18:05:32.110Z,97717.59
2023-03-08T18:07:58.588Z,97723.53
2023-03-08T18:10:25.060Z,97728.78
2023-03-08T18:12:51.634Z,97727.13
2023-03-08T18:15:17.992Z,97733.34
2023-03-08T18:17:44.344Z,97739.41
2023-03-08T18:20:11.287Z,97735.97
2023-03-08T18:22:40.491Z,97735.63
2023-03-08T18:25:07.050Z,97730.06
2023-03-08T18:27:33.436Z,97733.69
2023-03-08T18:30:00.000Z,97730.06
2023-03-08T18:32:27.993Z,97722.50
2023-03-08T18:34:54.416Z,97713.66
2023-03-08T18:37:21.082Z,97706.78
2023-03-08T18:39:52.791Z,97722.50
2023-03-08T18:42:19.259Z,97714.13
2023-03-08T18:44:45.670Z,97714.97
2023-03-08T18:47:12.175Z,97723.16
2023-03-08T18:49:38.564Z,97716.28
2023-03-08T18:52:05.172Z,97720.88
2023-03-08T18:54:31.517Z,97720.69
2023-03-08T18:56:59.150Z,97726.94
2023-03-08T18:59:26.491Z,97724.47
2023-03-08T19:01:54.073Z,97728.34
2023-03-08T19:04:20.617Z,97723.47
2023-03-08T19:06:47.151Z,97724.47
2023-03-08T19:09:16.046Z,97713.59
2023-03-08T19:11:42.523Z,97712.25
2023-03-08T19:14:11.622Z,97714.28
2023-03-08T19:16:38.482Z,97702.19
2023-03-08T19:19:10.769Z,97700.59
2023-03-08T19:21:41.377Z,97703.03
2023-03-08T19:24:08.298Z,97701.22
2023-03-08T19:26:37.355Z,97700.59
2023-03-08T19:29:23.434Z,97710.75
2023-03-08T19:31:57.006Z,97712.41
2023-03-08T19:34:29.127Z,97717.31
2023-03-08T19:36:57.717Z,97719.63
2023-03-08T19:39:27.127Z,97717.31
2023-03-08T19:42:02.460Z,97721.25
2023-03-08T19:44:30.071Z,97717.00
2023-03-08T19:46:56.884Z,97713.41
2023-03-08T19:49:26.814Z,97715.03
2023-03-08T19:51:55.098Z,97707.16
2023-03-08T19:54:23.248Z,97710.78
2023-03-08T19:56:50.130Z,97707.66
2023-03-08T19:59:16.794Z,97706.81
2023-03-08T20:01:43.793Z,97700.59
2023-03-08T20:04:11.014Z,97701.56
2023-03-08T20:06:41.272Z,97705.19
2023-03-08T20:09:09.907Z,97707.16
2023-03-08T20:11:36.742Z,97708.00
2023-03-08T20:14:03.467Z,97709.63
2023-03-08T20:16:31.089Z,97708.81
2023-03-08T20:18:57.732Z,97722.88
2023-03-08T20:21:27.341Z,97715.53
2023-03-08T20:23:57.703Z,97718.78
2023-03-08T20:26:26.193Z,97714.06
2023-03-08T20:28:52.795Z,97714.06
2023-03-08T20:31:19.728Z,97710.44
2023-03-08T20:33:46.332Z,97714.06
2023-03-08T20:36:12.915Z,97720.44
2023-03-08T20:38:39.712Z,97724.53
2023-03-08T20:41:18.659Z,97722.06
2023-03-08T20:43:46.965Z,97726.50
2023-03-08T20:46:15.321Z,97726.16
2023-03-08T20:48:43.800Z,97733.38
2023-03-08T20:51:13.238Z,97724.22
2023-03-08T20:53:39.791Z,97728.47
2023-03-08T20:56:08.003Z,97728.47
2023-03-08T20:58:34.441Z,97729.47
2023-03-08T21:01:01.086Z,97721.41
2023-03-08T21:03:27.628Z,97718.63
2023-03-08T21:05:54.010Z,97724.22
2023-03-08T21:08:24.145Z,97723.22
2023-03-08T21:10:50.629Z,97717.97
2023-03-08T21:13:16.992Z,97713.53
2023-03-08T21:15:43.390Z,97716.63
2023-03-08T21:18:09.772Z,97716.94
2023-03-08T21:20:37.856Z,97706.97
2023-03-08T21:23:04.283Z,97708.13
2023-03-08T21:25:33.724Z,97708.47
2023-03-08T21:28:00.093Z,97708.47
2023-03-08T21:30:28.280Z,97704.50
2023-03-08T21:32:55.096Z,97710.44
2023-03-08T21:35:22.809Z,97697.19
2023-03-08T21:37:49.220Z,97696.34
2023-03-08T21:40:15.704Z,97704.84
2023-03-08T21:42:42.081Z,97685.84
2023-03-08T21:45:09.073Z,97692.75
2023-03-08T21:47:35.402Z,97689.47
2023-03-08T21:50:01.763Z,97692.75
2023-03-08T21:52:28.123Z,97687.03
2023-03-08T21:54:54.524Z,97691.75
2023-03-08T21:57:20.882Z,97687.84
2023-03-08T21:59:47.308Z,97678.97
2023-03-08T22:02:13.669Z,97685.03
2023-03-08T22:04:40.172Z,97674.56
2023-03-08T22:07:06.561Z,97670.13
2023-03-08T22:09:32.948Z,97668.34
2023-03-08T22:11:59.490Z,97671.31
2023-03-08T22:14:26.871Z,97674.09
2023-03-08T22:16:55.281Z,97665.22
2023-03-08T22:19:21.765Z,97666.38
2023-03-08T22:21:48.122Z,97668.84
2023-03-08T22:24:14.511Z,97664.75
2023-03-08T22:26:41.062Z,97667.56
2023-03-08T22:29:07.591Z,97668.19
2023-03-08T22:31:33.963Z,97663.94
2023-03-08T22:34:01.424Z,97669.66
2023-03-08T22:36:28.199Z,97654.75
2023-03-08T22:38:54.589Z,97657.53
2023-03-08T22:41:26.514Z,97652.13
2023-03-08T22:43:53.236Z,97662.31
2023-03-08T22:46:22.786Z,97649.03
2023-03-08T22:48:50.091Z,97649.03
2023-03-08T22:51:19.693Z,97652.13
2023-03-08T22:53:46.065Z,97647.72
2023-03-08T22:56:25.819Z,97655.72
2023-03-08T22:58:52.511Z,97646.38
2023-03-08T23:01:21.886Z,97652.44
2023-03-08T23:03:49.682Z,97662.09
2023-03-08T23:06:17.893Z,97666.19
2023-03-08T23:08:44.798Z,97661.91
2023-03-08T23:11:12.111Z,97652.78
2023-03-08T23:13:38.583Z,97656.38
2023-03-08T23:16:07.404Z,97641.47
2023-03-08T23:18:35.050Z,97651.16
2023-03-08T23:21:04.138Z,97651.50
2023-03-08T23:23:30.757Z,97644.44
2023-03-08T23:25:57.774Z,97645.41
2023-03-08T23:28:24.491Z,97640.34
2023-03-08T23:30:50.862Z,97627.25
2023-03-08T23:33:17.270Z,97635.59
2023-03-08T23:35:48.254Z,97639.00
2023-03-08T23:38:14.722Z,97648.81
2023-03-08T23:40:41.176Z,97648.53
2023-03-08T23:43:07.567Z,97640.31
2023-03-08T23:45:33.976Z,97637.03
2023-03-08T23:48:03.085Z,97632.63
2023-03-08T23:50:29.666Z,97618.88
2023-03-08T23:52:56.042Z,97616.75
2023-03-08T23:55:22.416Z,97600.69
2023-03-08T23:57:48.771Z,97607.22
